createdAt,value
2019-04-21T00:04:52.018Z,8.13
2019-04-21T00:10:06.289Z,8.13
2019-04-21T00:15:00.725Z,8.87
2019-04-21T00:20:05.545Z,7.13
2019-04-21T00:25:14.044Z,6.57
2019-04-21T00:30:30.331Z,6.63
2019-04-21T00:35:13.304Z,7.17
2019-04-21T00:40:35.526Z,7.33
2019-04-21T00:45:31.305Z,6.40
2019-04-21T00:50:51.796Z,6.47
2019-04-21T00:55:52.027Z,7.00
2019-04-21T01:00:57.069Z,6.97
2019-04-21T01:05:56.087Z,6.97
2019-04-21T01:10:52.990Z,7.33
2019-04-21T01:16:06.478Z,7.90
2019-04-21T01:20:48.989Z,7.33
2019-04-21T01:26:06.794Z,7.90
2019-04-21T01:31:15.363Z,7.60
2019-04-21T01:36:14.452Z,7.83
2019-04-21T01:41:25.556Z,7.67
2019-04-21T01:46:28.379Z,7.33
2019-04-21T01:51:28.105Z,8.00
2019-04-21T01:56:46.658Z,7.30
2019-04-21T02:01:48.494Z,7.27
2019-04-21T02:06:55.034Z,7.50
2019-04-21T02:12:00.078Z,6.80
2019-04-21T02:17:00.661Z,7.17
2019-04-21T02:22:02.394Z,7.10
2019-04-21T02:27:13.201Z,8.23
2019-04-21T02:37:36.801Z,8.13
2019-04-21T02:42:37.868Z,7.53
2019-04-21T02:47:47.482Z,7.47
2019-04-21T02:52:52.740Z,7.63
2019-04-21T03:03:05.585Z,8.10
2019-04-21T03:13:17.523Z,7.20
2019-04-21T03:18:17.651Z,7.57
2019-04-21T03:23:19.164Z,9.30
2019-04-21T03:28:22.210Z,9.33
2019-04-21T03:38:28.845Z,11.00
2019-04-21T03:48:36.575Z,10.83
2019-04-21T03:53:40.361Z,10.80
2019-04-21T04:04:30.516Z,12.00
2019-04-21T04:14:44.483Z,11.20
2019-04-21T04:19:45.082Z,11.00
2019-04-21T04:24:57.544Z,10.83
2019-04-21T04:29:59.357Z,10.30
2019-04-21T04:40:31.437Z,11.33
2019-04-21T04:45:41.656Z,10.43
2019-04-21T05:00:45.914Z,11.03
2019-04-21T05:06:42.109Z,11.83
2019-04-21T05:11:46.095Z,12.17
2019-04-21T05:16:55.909Z,11.97
2019-04-21T05:21:42.057Z,12.43
2019-04-21T05:26:39.153Z,12.87
2019-04-21T05:32:07.887Z,12.90
2019-04-21T05:37:29.280Z,11.80
2019-04-21T05:42:35.335Z,11.93
2019-04-21T05:48:12.062Z,12.20
2019-04-21T05:53:00.754Z,11.90
2019-04-21T05:58:06.912Z,11.90
2019-04-21T06:03:17.552Z,11.83
2019-04-21T06:08:19.356Z,12.23
2019-04-21T06:13:26.859Z,11.90
2019-04-21T06:18:36.426Z,11.50
2019-04-21T06:23:38.093Z,12.70
2019-04-21T06:28:44.067Z,11.48
2019-04-21T06:33:41.977Z,11.97
2019-04-21T06:39:06.410Z,11.45
2019-04-21T06:44:20.333Z,11.12
2019-04-21T06:49:02.687Z,11.75
2019-04-21T06:54:09.849Z,11.08
2019-04-21T06:59:20.851Z,11.15
2019-04-21T07:09:23.817Z,11.03
2019-04-21T07:14:30.214Z,10.78
2019-04-21T07:19:34.686Z,10.98
2019-04-21T07:24:35.445Z,10.50
2019-04-21T07:29:45.346Z,10.60
2019-04-21T07:34:38.547Z,8.25
2019-04-21T07:39:40.508Z,10.65
2019-04-21T07:44:40.854Z,10.13
2019-04-21T07:50:07.438Z,9.93
2019-04-21T08:05:20.008Z,9.73
2019-04-21T08:10:22.478Z,9.70
2019-04-21T08:15:38.592Z,8.85
2019-04-21T08:20:31.336Z,9.35
2019-04-21T08:25:46.538Z,8.73
2019-04-21T08:30:43.028Z,8.98
2019-04-21T08:36:08.001Z,8.83
2019-04-21T08:40:52.443Z,8.75
2019-04-21T08:45:52.738Z,7.87
2019-04-21T08:51:05.655Z,7.65
2019-04-21T08:56:17.314Z,7.80
2019-04-21T09:01:42.933Z,7.40
2019-04-21T09:11:47.191Z,7.15
2019-04-21T09:16:54.941Z,6.25
2019-04-21T09:22:13.244Z,5.90
2019-04-21T09:26:58.026Z,5.37
2019-04-21T09:31:49.441Z,3.98
2019-04-21T09:37:02.847Z,3.60
2019-04-21T09:41:59.069Z,3.95
2019-04-21T09:47:02.029Z,3.33
2019-04-21T09:52:06.670Z,3.80
2019-04-21T09:57:15.236Z,3.42
2019-04-21T10:02:18.856Z,3.62
2019-04-21T10:07:24.677Z,3.10
2019-04-21T10:12:19.992Z,3.42
2019-04-21T10:17:49.572Z,3.40
2019-04-21T10:22:53.014Z,4.12
2019-04-21T10:27:55.138Z,3.58
2019-04-21T10:32:58.425Z,4.00
2019-04-21T10:38:12.894Z,4.10
2019-04-21T10:43:07.487Z,4.60
2019-04-21T10:48:08.867Z,4.03
2019-04-21T10:53:23.111Z,4.17
2019-04-21T10:58:44.949Z,4.37
2019-04-21T11:03:51.014Z,3.50
2019-04-21T11:08:55.597Z,3.47
2019-04-21T11:13:57.157Z,3.80
2019-04-21T11:19:00.018Z,3.40
2019-04-21T11:24:02.243Z,3.50
2019-04-21T11:29:05.236Z,3.92
2019-04-21T11:34:09.635Z,3.52
2019-04-21T11:39:30.781Z,3.37
2019-04-21T11:44:24.770Z,3.27
2019-04-21T11:49:30.500Z,3.52
2019-04-21T11:54:31.155Z,3.00
2019-04-21T11:59:33.523Z,3.45
2019-04-21T12:04:35.900Z,3.30
2019-04-21T12:09:37.987Z,2.98
2019-04-21T12:14:41.834Z,2.87
2019-04-21T12:19:44.750Z,2.90
2019-04-21T12:24:49.068Z,2.95
2019-04-21T12:29:51.683Z,2.33
2019-04-21T12:34:55.310Z,2.95
2019-04-21T12:39:58.979Z,2.50
2019-04-21T12:45:01.490Z,3.10
2019-04-21T12:50:04.820Z,2.70
2019-04-21T12:55:07.380Z,2.58
2019-04-21T13:00:13.097Z,2.98
2019-04-21T13:05:15.974Z,2.50
2019-04-21T13:10:20.093Z,2.67
2019-04-21T13:15:22.466Z,2.80
2019-04-21T13:20:25.415Z,2.37
2019-04-21T13:25:27.865Z,2.52
2019-04-21T13:30:30.559Z,2.27
2019-04-21T13:35:33.159Z,2.13
2019-04-21T13:41:17.577Z,2.47
2019-04-21T13:46:08.271Z,2.42
2019-04-21T13:51:11.206Z,2.30
2019-04-21T13:56:14.340Z,2.12
2019-04-21T14:01:17.932Z,2.20
2019-04-21T14:06:20.528Z,2.20
2019-04-21T14:11:23.060Z,1.93
2019-04-21T14:16:26.617Z,2.00
2019-04-21T14:21:29.395Z,2.72
2019-04-21T14:26:32.123Z,2.30
2019-04-21T14:31:34.746Z,2.42
2019-04-21T14:36:37.176Z,2.60
2019-04-21T14:41:40.288Z,2.30
2019-04-21T14:46:50.962Z,2.40
2019-04-21T14:52:19.107Z,2.15
2019-04-21T14:57:21.446Z,3.20
2019-04-21T15:02:23.806Z,1.82
2019-04-21T15:07:28.671Z,2.40
2019-04-21T15:12:31.809Z,1.87
2019-04-21T15:17:33.999Z,2.47
2019-04-21T15:22:36.460Z,2.33
2019-04-21T15:27:39.040Z,2.12
2019-04-21T15:32:42.299Z,2.40
2019-04-21T15:37:46.225Z,2.50
2019-04-21T15:42:48.526Z,2.70
2019-04-21T15:47:51.887Z,2.40
2019-04-21T15:52:55.882Z,2.20
2019-04-21T15:58:16.500Z,2.00
2019-04-21T16:03:18.998Z,2.10
2019-04-21T16:08:22.018Z,2.20
2019-04-21T16:13:25.791Z,2.40
2019-04-21T16:18:28.097Z,2.42
2019-04-21T16:23:30.731Z,3.08
2019-04-21T16:28:33.381Z,2.40
2019-04-21T16:33:36.826Z,2.57
2019-04-21T16:38:39.648Z,2.47
2019-04-21T16:43:43.036Z,3.57
2019-04-21T16:48:49.353Z,2.50
2019-04-21T16:53:57.695Z,2.73
2019-04-21T16:59:06.381Z,3.25
2019-04-21T17:04:10.647Z,2.87
2019-04-21T17:09:12.977Z,2.70
2019-04-21T17:14:31.220Z,3.37
2019-04-21T17:19:27.185Z,3.10
2019-04-21T17:24:24.271Z,2.70
2019-04-21T17:29:26.602Z,2.80
2019-04-21T17:34:30.595Z,2.90
2019-04-21T17:39:32.683Z,2.77
2019-04-21T17:44:35.164Z,3.13
2019-04-21T17:49:37.454Z,3.30
2019-04-21T17:54:48.498Z,4.77
2019-04-21T18:00:11.621Z,3.67
2019-04-21T18:05:18.775Z,4.07
2019-04-21T18:10:14.366Z,3.90
2019-04-21T18:15:16.922Z,3.63
2019-04-21T18:20:01.919Z,5.07
2019-04-21T18:25:13.770Z,4.47
2019-04-21T18:30:36.251Z,4.20
2019-04-21T18:35:58.167Z,3.90
2019-04-21T18:41:01.437Z,4.10
2019-04-21T18:46:42.308Z,4.20
2019-04-21T18:51:55.204Z,4.30
2019-04-21T18:56:56.565Z,4.93
2019-04-21T19:01:59.721Z,5.00
2019-04-21T19:07:12.740Z,5.00
2019-04-21T19:12:23.540Z,5.00
2019-04-21T19:22:28.875Z,4.67
2019-04-21T19:27:31.105Z,4.40
2019-04-21T19:32:36.182Z,4.27
2019-04-21T19:37:26.997Z,5.80
2019-04-21T19:42:37.586Z,6.10
2019-04-21T19:47:56.540Z,6.90
2019-04-21T19:52:48.626Z,6.83
2019-04-21T19:57:43.142Z,8.17
2019-04-21T20:02:46.038Z,7.73
2019-04-21T20:08:06.683Z,7.17
2019-04-21T20:13:15.173Z,6.47
2019-04-21T20:18:07.179Z,6.27
2019-04-21T20:23:03.074Z,6.50
2019-04-21T20:28:15.043Z,6.23
2019-04-21T20:33:46.918Z,5.87
2019-04-21T20:38:24.766Z,5.70
2019-04-21T20:43:38.661Z,5.60
2019-04-21T20:48:40.120Z,5.83
2019-04-21T20:53:40.956Z,5.70
2019-04-21T20:58:45.306Z,6.53
2019-04-21T21:03:50.559Z,6.17
2019-04-21T21:08:57.165Z,6.03
2019-04-21T21:13:58.931Z,6.57
2019-04-21T21:24:08.570Z,6.50
2019-04-21T21:29:07.085Z,5.60
2019-04-21T21:34:20.827Z,5.20
2019-04-21T21:39:21.364Z,4.63
2019-04-21T21:44:14.854Z,5.33
2019-04-21T21:49:27.897Z,4.93
2019-04-21T21:54:19.864Z,5.07
2019-04-21T21:59:27.542Z,5.23
2019-04-21T22:04:30.759Z,4.60
2019-04-21T22:09:32.376Z,4.73
2019-04-21T22:14:44.674Z,5.00
2019-04-21T22:20:03.792Z,5.23
2019-04-21T22:24:55.590Z,4.57
2019-04-21T22:29:52.847Z,4.77
2019-04-21T22:34:58.301Z,4.03
2019-04-21T22:40:09.614Z,3.93
2019-04-21T22:45:01.360Z,4.27
2019-04-21T22:50:04.608Z,4.50
2019-04-21T22:55:15.952Z,4.90
2019-04-21T23:00:15.492Z,4.70
2019-04-21T23:05:22.276Z,4.63
2019-04-21T23:10:23.374Z,4.40
2019-04-21T23:15:36.881Z,4.20
2019-04-21T23:20:47.974Z,4.60
2019-04-21T23:25:46.206Z,4.60
2019-04-21T23:31:00.872Z,4.20
2019-04-21T23:35:45.998Z,4.00
2019-04-21T23:40:54.259Z,3.77
2019-04-21T23:45:52.134Z,4.07
2019-04-21T23:51:07.688Z,4.00
2019-04-21T23:55:59.210Z,4.20
